Terminal Aerodrome Forecast
Issued by NWS Hastings, NE

Home | Current Version | Previous Version | Text Only | Print | Product List | Glossary On
Versions: 1 2 3 4 5 6 7 8 9 10 11 12 13 14 15 16 17 18 19 20 21 22 23 24 25 26 27 28 29 30 31 32 33 34 35 36 37 38
000
FTUS43 KGID 192320
TAFGRI
TAF
KGRI 192320Z 2000/2024 33018G25KT P6SM SCT080
     FM200100 30012KT P6SM FEW080
     FM201600 31020G29KT P6SM SCT100=

USA.gov is the U.S. government's official web portal to all federal, state and local government web resources and services.